Austin, TX (78772)

10:07 AM CDT on April 21, 2015 (GMT -0500)
Travis Heights - Chateaux Sexton | | Change Station
CLOSE
Current Station
Personal Weather Station
Location: Austin, TX
Elevation: 568 ft
Nearby Weather Stations

Elev 568 ft 30.24 °N, 97.75 °W | Updated 28 seconds ago

Clear
Clear
67.1 °F
Feels Like 67.1 °F
N
0.0
Wind Variable Wind from North
Gusts 0.0 mph

Today
High -- | Low -- °F
--% Chance of Precip.
Yesterday
High -- | Low -- °F
Precip. -- in
6:57 AM 8:02 PM
Waxing Crescent, 11% visible
Pressure 30.02 in
Visibility 10.0 miles
Clouds Few 11000 ft
Dew Point 54 °F
Humidity 62%
Rainfall 0.00 in
Snow Depth Not available.
UV 4 out of 12
Pollen 8.70 out of 12
Air Quality Not available.
Flu Activity Local Activity
METAR KAUS 211453Z VRB03KT 10SM FEW110 18/12 A3003 RMK AO2 SLP166 T01830117 53011

More Conditions Fewer Conditions

Pressure 30.02 in
Visibility 10.0 miles
Clouds Few 11000 ft
Dew Point 54 °F
Humidity 62%
Rainfall 0.00 in
Snow Depth Not available.
UV 4 out of 12
Pollen 8.70 out of 12
Air Quality Not available.
Flu Activity Local Activity
METAR KAUS 211453Z VRB03KT 10SM FEW110 18/12 A3003 RMK AO2 SLP166 T01830117 53011

More Conditions Fewer Conditions

10-Day Weather Forecast

Almanac

Astronomy

Apr. 21, 2015 Rise Set
Actual Time
Civil Twilight
Nautical Twilight
Astronomical Twilight
Moon
Length of Visible Light
Length of Day
Tomorrow will be .
, % of the Moon is Illuminated

Today's Extremes

State Highs State Lows

Community

WunderPhotos

Upload Photos

1,815,418 photos uploaded!

WunderBlogs® & News

Nearby

Air Quality

  Air Quality AQ Index Pollutant
Not available.

Snow Depth

Station Depth Elevation

Earthquake Activity

City Distance Mag. Time & Date
Minimum magnitude displayed is 2.5.

Coastal Water Temperatures

Place Temperature

Stations

Nearby Weather Stations

Station Location Temp. Windchill Dew Point Humidity Wind Precip. Elev Updated Type